Hauptseite
METAR-TAF:

METAR-TAF

Flughäfen :

Flughafen Metz-Nancy-Lothringen

Metz-Nancy-Lorraine, Frankreich

Breite: 48-59N, Länge: 006-15E, Höhe: 264 m

Beobachtung

Neuester Wetterbericht von vor 22 Minuten, um 19:00 UTC
Wind 3 kt aus unterschiedlichen Richtungen
Temperatur 22°C
Luftfeuchtigkeit 60%
Luftdruck 1020 hPa
Sichtweite 10 km oder mehr
keine Wolken unter 1500 m und keine Kumulonimbus oder Gewitterwolken

METAR: LFJL 191900Z AUTO VRB03KT CAVOK 22/14 Q1020 NOSIG

Zeit: 21:22 (19:22 UTC)

Prognose

Neuester Wetterbericht von vor 2 Stunden und 22 Minuten, um 17:00 UTC
Gültige Prognose vom 19 um 18 UTC bis 20 um 18 UTC
Wind 3 kt aus unterschiedlichen Richtungen
Sichtweite 10 km oder mehr
keine Wolken unter 1500 m und keine Kumulonimbus oder Gewitterwolken
Übergehend zu
vom 20 um 09 UTC bis 20 um 11 UTC
Wind 10 kt aus Südwest

TAF: LFJL 191700Z 1918/2018 VRB03KT CAVOK BECMG 2009/2011 23010KT

Wetterbeobachtungen und Prognosen von mehr als 4000 Flughäfen (METAR und TAF Bericht).

Die verfügbaren Stationen werden durch gelbe und rote Markierungen auf der Karte dargestellt.

Führen Sie die Maus auf sie, um den Namen der Station zu sehen.

Darauf klicken, um die Beobachtung von Wetterbeobachtungen und Prognosen zu sehen.

Um die Karte zu ändern : klicken Sie auf den grünen Tasten mit einem schwarzen Kreuz Zum Vergrößern, auf den grünen Button mit einem Gedankenstrich zu verkleinern, oder auf die grünen Pfeile für benachbarte Karten.


METAR-TAF: